首页
METAR-TAF:

METAR-TAF

机场 :

图克托亚图克, 西北特區, 加拿大

纬度: 69-27N, 经度: 133-01W, 海拔: 5米

当前天气观测

该预报发布于33分钟前的12:00 UTC
风速3节,风向东南
温度 2°C
湿度 93%
气压 1022 hPa
能見度: 24.1公里
少量云层高于600英尺
少量云层高于1500英尺
阴天层高于4600英尺

METAR: CYUB 191200Z CCA 14003KT 15SM FEW006 FEW015 OVC046 02/01 A3018 RMK ST1SC1SC7 ST TR CALL OUT SLP222

时间: 06:33 (12:33 UTC)

预报

该预报发布于11小时和55分钟前的00:38 UTC
预报有效从19日的 01点(UTC)到 19日的 05点(UTC)
风速7节,风向北转西北
能見度: 10公里
散云层高于1200英尺
阴天层高于6000英尺
短暂存在
从 19日的 01点(UTC)到 19日的 05点(UTC)
能見度: 10公里
多云层高于1200英尺
阴天层高于4000英尺
小雨, 雪
成为
从 19日的 01点(UTC)到 19日的 03点(UTC)
风速7节,风向东北

TAF: CYUB 190038Z 1901/1905 34007KT P6SM SCT012 OVC060 TEMPO 1901/1905 P6SM -RASN BKN012 OVC040 BECMG 1901/1903 04007KT RMK NXT FCST WILL BE ISSUED AT 191445Z

超过4000个机场的气象观测和天气预报(METAR&TAF报告)。

可查询的气象台以黄色和红色小点在地图上表示。

将鼠标移到小点上方,可查看气象台名称。

然后点击查看天气观测和预报。

如需切换地图:点击带黑十字的绿色按钮放大地图;点击带横线的绿色按钮缩小地图;或者点击绿色箭头查看邻近地区的地图。


METAR-TAF: